Relevés horaires Bierset (Belgique)


Relevés horaires à Bierset - Mercredi 20 Sept. 2023
Heure UTC1 Température [°C] Vent [km/h] Hum. [%] Pres.4 [hPa] Visi. [Km] Nébu. [octa] Préc.5 [mm] Cond.
2m. Res. Ros. Dir.2 Vit. Moy. Raf.3
23:00 19.1 19.1 10.7 S 11.1 13.0 18.5 58 1002.3(-1.9/3h) 30 5/8 -- --
22:00 18.8 18.8 11.5 S 11.1 11.1 16.7 63 1002.9(-1.7/3h) 30 5/8 -- --
21:00 18.8 18.8 11.9 S 9.3 11.1 20.4 64 1003.6(-0.9/3h) 30 7/8 -- --
20:00 19.0 19.0 12.0 S 9.3 11.1 20.4 64 1004.2(-0.9/3h) 30 7/8 -- --
19:00 19.4 19.4 12.0 S 9.3 9.3 14.8 62 1004.6(-0.7/3h) 30 7/8 -- --
18:00 19.6 19.6 12.3 S 9.3 20.4 27.8 63 1004.4(-1.4/3h) 30 7/8 0/12h
--
17:00 20.5 20.5 12.0 S 11.1 16.7 25.9 58 1005(-1.4/3h) 30 7/8 -- --
16:00 21.1 21.1 12.6 S 13.0 20.4 27.8 58 1005.2(-2.1/3h) 30 6/8 -- --
15:00 21.8 21.8 12.1 SSO 16.7 20.4 25.9 54 1005.7(-2.2/3h) 30 5/8 -- --
14:00 21.3 21.3 11.7 SSO 14.8 16.7 24.1 54 1006.4(-2.3/3h) 30 5/8 -- --
13:00 20.5 20.5 11.8 SSO 16.7 18.5 25.9 57 1007.3(-1.8/3h) 30 7/8 -- --
12:00 19.5 19.5 12.6 SSO 16.7 18.5 27.8 64 1008.1(-1.0/3h) 30 7/8 0/6h
--
11:00 18.8 18.6 13.3 SSO 18.5 18.5 27.8 70 1008.8(-0.2/3h) 30 7/8 -- --
10:00 18.4 18.2 13.4 SSO 16.7 18.5 27.8 73 1009.3(0.2/3h) 30 7/8 -- --
09:00 18.4 18.2 13.4 SSO 16.7 16.7 25.9 73 1009.2(0.0/3h) 30 7/8 -- --
08:00 17.2 16.8 13.3 S 14.8 14.8 22.2 78 1009.2(0.0/3h) 30 7/8 -- --
07:00 15.7 15.1 12.9 S 13.0 13.0 20.4 83 1009.2(-0.9/3h) 30 6/8 -- --
06:00 15.0 14.7 12.7 SSO 9.3 13.0 22.2 86 1009.5(-1.1/3h) 30 4/8 0/12h
--
05:00 15.1 14.8 12.7 S 9.3 11.1 16.7 86 1009.5(-1.6/3h) 30 5/8 -- --
04:00 15.3 14.8 12.4 S 11.1 13.0 18.5 83 1010.2(-1.3/3h) 30 2/8 -- --
03:00 15.8 15.4 12.4 SSO 11.1 13.0 20.4 80 1010.6(-1.0/3h) 30 2/8 -- --
02:00 16.1 15.8 12.1 SSO 11.1 13.0 20.4 77 1011.1(-0.5/3h) 30 5/8 -- --
01:00 16.3 16 11.8 SSO 11.1 13.0 16.7 75 1011.4(-0.3/3h) 30 2/8 -- --

1 Coordinated Universal Time. Actuellement il est 17:00 locale et 15:00 UTC.

2 Le vent souffle depuis la direction indiquée vers la direction oposée.

3 Les rafales max. sont disponible 40 min après l'heure du relevé.

4 Pour les stations d'altitude (plus de 600m) le géopotentiel du niveau le plus proche de la pression obligatoire est indiqué.

5 Les stations disposant d'un diffuseur peuvent indiquer "trace". Cela signifie que des précipitations ont touchés le sol mais que la quantité est inférieure à 0.1 mm.

Récapitulatif de la journée
Température [°C] Vent [km/h] Ensoleillement4 [h] Precipitations totale5 [mm] Pression [Hpa]
Min1 Max.2 Moy.3 Max. Min Max.
15.0 22.1 15 27.8 0 h 0 min 0 1002.3 1011.4

1 Température minimale relevée entre 18:00 UTC la veille et 18:00 UTC le jour donné.

2 Température maximale relevée entre 06:00 UTC le jour donné et 06:00 UTC le lendemain.

3 Vent moyen de la journée basé sur les relevés horaires.

4 Ensoleillement en heures relevé entre 06:00 UTC la veille et 06:00 UTC le jour donné.

5 Précipitations totales tombées entre 06:00 UTC la jour donné et 06:00 UTC le lendemain.

Graphiques horaires